sensor_id;sensor_type;location;lat;lon;timestamp;P1;durP1;ratioP1;P2;durP2;ratioP2
1957;SDS011;979;51.076;13.748;2022-08-06T00:00:00;17.30;;;16.60;;
1957;SDS011;979;51.076;13.748;2022-08-06T00:02:39;17.07;;;16.33;;
1957;SDS011;979;51.076;13.748;2022-08-06T00:05:08;17.30;;;16.47;;
1957;SDS011;979;51.076;13.748;2022-08-06T00:07:53;16.50;;;15.90;;
1957;SDS011;979;51.076;13.748;2022-08-06T00:10:23;17.10;;;16.33;;
1957;SDS011;979;51.076;13.748;2022-08-06T00:12:55;17.13;;;16.53;;
1957;SDS011;979;51.076;13.748;2022-08-06T00:15:27;17.30;;;16.70;;
1957;SDS011;979;51.076;13.748;2022-08-06T00:18:18;17.20;;;16.53;;
1957;SDS011;979;51.076;13.748;2022-08-06T00:20:51;18.77;;;17.87;;
1957;SDS011;979;51.076;13.748;2022-08-06T00:23:21;20.33;;;19.53;;
1957;SDS011;979;51.076;13.748;2022-08-06T00:26:03;20.63;;;19.60;;
1957;SDS011;979;51.076;13.748;2022-08-06T00:28:33;23.60;;;22.30;;
1957;SDS011;979;51.076;13.748;2022-08-06T00:31:03;22.80;;;21.80;;
1957;SDS011;979;51.076;13.748;2022-08-06T00:33:38;22.97;;;21.87;;
1957;SDS011;979;51.076;13.748;2022-08-06T00:36:23;22.27;;;21.20;;
1957;SDS011;979;51.076;13.748;2022-08-06T00:38:55;25.83;;;24.20;;
1957;SDS011;979;51.076;13.748;2022-08-06T00:41:26;25.10;;;23.80;;
1957;SDS011;979;51.076;13.748;2022-08-06T00:44:07;24.20;;;22.93;;
1957;SDS011;979;51.076;13.748;2022-08-06T00:46:38;25.00;;;23.80;;
1957;SDS011;979;51.076;13.748;2022-08-06T00:49:08;24.60;;;23.50;;
1957;SDS011;979;51.076;13.748;2022-08-06T00:51:38;24.03;;;22.87;;
1957;SDS011;979;51.076;13.748;2022-08-06T00:54:17;23.47;;;22.13;;
1957;SDS011;979;51.076;13.748;2022-08-06T00:57:02;22.50;;;21.53;;
1957;SDS011;979;51.076;13.748;2022-08-06T00:59:35;22.00;;;21.00;;
1957;SDS011;979;51.076;13.748;2022-08-06T01:02:04;21.50;;;20.37;;
1957;SDS011;979;51.076;13.748;2022-08-06T01:04:37;20.57;;;19.40;;
1957;SDS011;979;51.076;13.748;2022-08-06T01:07:05;20.90;;;19.80;;
1957;SDS011;979;51.076;13.748;2022-08-06T01:09:43;19.87;;;18.97;;
1957;SDS011;979;51.076;13.748;2022-08-06T01:12:24;20.70;;;19.60;;
1957;SDS011;979;51.076;13.748;2022-08-06T01:15:00;19.87;;;18.90;;
1957;SDS011;979;51.076;13.748;2022-08-06T01:17:33;19.83;;;18.90;;
1957;SDS011;979;51.076;13.748;2022-08-06T01:20:12;19.73;;;18.93;;
1957;SDS011;979;51.076;13.748;2022-08-06T01:23:16;19.30;;;18.50;;
1957;SDS011;979;51.076;13.748;2022-08-06T01:26:09;20.07;;;19.03;;
1957;SDS011;979;51.076;13.748;2022-08-06T01:28:58;18.83;;;18.03;;
1957;SDS011;979;51.076;13.748;2022-08-06T01:31:37;19.50;;;18.67;;
1957;SDS011;979;51.076;13.748;2022-08-06T01:34:13;19.40;;;18.57;;
1957;SDS011;979;51.076;13.748;2022-08-06T01:36:58;20.07;;;19.17;;
1957;SDS011;979;51.076;13.748;2022-08-06T01:39:31;19.67;;;18.57;;
1957;SDS011;979;51.076;13.748;2022-08-06T01:42:22;18.97;;;18.07;;
1957;SDS011;979;51.076;13.748;2022-08-06T01:45:06;18.90;;;18.17;;
1957;SDS011;979;51.076;13.748;2022-08-06T01:47:41;19.60;;;18.80;;
1957;SDS011;979;51.076;13.748;2022-08-06T01:50:21;19.53;;;18.20;;
1957;SDS011;979;51.076;13.748;2022-08-06T01:52:55;19.17;;;18.33;;
1957;SDS011;979;51.076;13.748;2022-08-06T01:55:27;19.23;;;18.43;;
1957;SDS011;979;51.076;13.748;2022-08-06T01:58:21;19.77;;;18.77;;
1957;SDS011;979;51.076;13.748;2022-08-06T02:00:57;19.10;;;18.10;;
1957;SDS011;979;51.076;13.748;2022-08-06T02:03:30;18.90;;;18.00;;
1957;SDS011;979;51.076;13.748;2022-08-06T02:06:16;20.43;;;19.23;;
1957;SDS011;979;51.076;13.748;2022-08-06T02:08:55;20.40;;;19.20;;
1957;SDS011;979;51.076;13.748;2022-08-06T02:11:49;19.70;;;18.80;;
1957;SDS011;979;51.076;13.748;2022-08-06T02:14:33;19.13;;;18.23;;
1957;SDS011;979;51.076;13.748;2022-08-06T02:17:10;19.93;;;18.77;;
1957;SDS011;979;51.076;13.748;2022-08-06T02:19:41;19.73;;;18.73;;
1957;SDS011;979;51.076;13.748;2022-08-06T02:22:34;18.63;;;17.73;;
1957;SDS011;979;51.076;13.748;2022-08-06T02:25:08;18.60;;;17.80;;
1957;SDS011;979;51.076;13.748;2022-08-06T02:27:41;19.60;;;18.50;;
1957;SDS011;979;51.076;13.748;2022-08-06T02:30:24;18.83;;;17.97;;
1957;SDS011;979;51.076;13.748;2022-08-06T02:33:04;19.63;;;18.47;;
1957;SDS011;979;51.076;13.748;2022-08-06T02:35:36;19.23;;;18.40;;
1957;SDS011;979;51.076;13.748;2022-08-06T02:38:11;18.70;;;17.90;;
1957;SDS011;979;51.076;13.748;2022-08-06T02:40:55;19.47;;;18.57;;
1957;SDS011;979;51.076;13.748;2022-08-06T02:43:31;18.30;;;17.60;;
1957;SDS011;979;51.076;13.748;2022-08-06T02:46:03;18.03;;;17.33;;
1957;SDS011;979;51.076;13.748;2022-08-06T02:48:40;18.23;;;17.47;;
1957;SDS011;979;51.076;13.748;2022-08-06T02:51:14;17.60;;;16.90;;
1957;SDS011;979;51.076;13.748;2022-08-06T02:54:09;17.43;;;16.73;;
1957;SDS011;979;51.076;13.748;2022-08-06T02:56:44;17.63;;;16.93;;
1957;SDS011;979;51.076;13.748;2022-08-06T02:59:13;17.97;;;17.07;;
1957;SDS011;979;51.076;13.748;2022-08-06T03:01:49;17.67;;;16.87;;
1957;SDS011;979;51.076;13.748;2022-08-06T03:04:24;16.83;;;16.13;;
1957;SDS011;979;51.076;13.748;2022-08-06T03:07:00;17.00;;;16.50;;
1957;SDS011;979;51.076;13.748;2022-08-06T03:09:55;17.70;;;16.87;;
1957;SDS011;979;51.076;13.748;2022-08-06T03:12:27;17.80;;;17.00;;
1957;SDS011;979;51.076;13.748;2022-08-06T03:14:57;16.90;;;16.20;;
1957;SDS011;979;51.076;13.748;2022-08-06T03:17:36;17.17;;;16.40;;
1957;SDS011;979;51.076;13.748;2022-08-06T03:20:09;16.73;;;16.17;;
1957;SDS011;979;51.076;13.748;2022-08-06T03:22:43;16.83;;;16.23;;
1957;SDS011;979;51.076;13.748;2022-08-06T03:25:14;17.70;;;17.00;;
1957;SDS011;979;51.076;13.748;2022-08-06T03:27:49;16.87;;;16.27;;
1957;SDS011;979;51.076;13.748;2022-08-06T03:30:27;17.67;;;16.97;;
1957;SDS011;979;51.076;13.748;2022-08-06T03:33:02;17.17;;;16.57;;
1957;SDS011;979;51.076;13.748;2022-08-06T03:35:54;17.70;;;16.70;;
1957;SDS011;979;51.076;13.748;2022-08-06T03:38:27;17.33;;;16.63;;
1957;SDS011;979;51.076;13.748;2022-08-06T03:40:59;17.33;;;16.73;;
1957;SDS011;979;51.076;13.748;2022-08-06T03:43:28;17.27;;;16.67;;
1957;SDS011;979;51.076;13.748;2022-08-06T03:46:20;17.00;;;16.30;;
1957;SDS011;979;51.076;13.748;2022-08-06T03:48:55;16.60;;;16.00;;
1957;SDS011;979;51.076;13.748;2022-08-06T03:51:28;16.80;;;16.10;;
1957;SDS011;979;51.076;13.748;2022-08-06T03:54:19;16.63;;;16.03;;
1957;SDS011;979;51.076;13.748;2022-08-06T03:57:03;16.30;;;15.70;;
1957;SDS011;979;51.076;13.748;2022-08-06T03:59:39;16.40;;;15.80;;
1957;SDS011;979;51.076;13.748;2022-08-06T04:02:30;16.03;;;15.53;;
1957;SDS011;979;51.076;13.748;2022-08-06T04:05:12;16.67;;;16.07;;
1957;SDS011;979;51.076;13.748;2022-08-06T04:07:50;16.57;;;15.97;;
1957;SDS011;979;51.076;13.748;2022-08-06T04:10:27;16.00;;;15.50;;
1957;SDS011;979;51.076;13.748;2022-08-06T04:13:03;15.13;;;14.53;;
1957;SDS011;979;51.076;13.748;2022-08-06T04:15:54;15.90;;;15.40;;
1957;SDS011;979;51.076;13.748;2022-08-06T04:18:24;15.63;;;15.13;;
1957;SDS011;979;51.076;13.748;2022-08-06T04:20:57;15.80;;;15.30;;
1957;SDS011;979;51.076;13.748;2022-08-06T04:23:51;16.20;;;15.63;;
1957;SDS011;979;51.076;13.748;2022-08-06T04:26:21;16.27;;;15.67;;
1957;SDS011;979;51.076;13.748;2022-08-06T04:28:55;16.43;;;15.90;;
1957;SDS011;979;51.076;13.748;2022-08-06T04:31:26;15.77;;;15.30;;
1957;SDS011;979;51.076;13.748;2022-08-06T04:34:21;16.00;;;15.50;;
1957;SDS011;979;51.076;13.748;2022-08-06T04:36:54;15.67;;;15.13;;
1957;SDS011;979;51.076;13.748;2022-08-06T04:39:27;16.10;;;15.60;;
1957;SDS011;979;51.076;13.748;2022-08-06T04:42:13;15.83;;;15.33;;
1957;SDS011;979;51.076;13.748;2022-08-06T04:44:43;14.80;;;14.40;;
1957;SDS011;979;51.076;13.748;2022-08-06T04:47:25;15.03;;;14.50;;
1957;SDS011;979;51.076;13.748;2022-08-06T04:50:07;15.20;;;14.80;;
1957;SDS011;979;51.076;13.748;2022-08-06T04:52:39;15.40;;;14.80;;
1957;SDS011;979;51.076;13.748;2022-08-06T04:55:19;15.10;;;14.60;;
1957;SDS011;979;51.076;13.748;2022-08-06T04:57:49;15.27;;;14.83;;
1957;SDS011;979;51.076;13.748;2022-08-06T05:00:31;15.40;;;14.80;;
1957;SDS011;979;51.076;13.748;2022-08-06T05:03:19;15.43;;;14.93;;
1957;SDS011;979;51.076;13.748;2022-08-06T05:06:09;15.20;;;14.70;;
1957;SDS011;979;51.076;13.748;2022-08-06T05:08:41;14.70;;;14.30;;
1957;SDS011;979;51.076;13.748;2022-08-06T05:11:22;14.60;;;14.20;;
1957;SDS011;979;51.076;13.748;2022-08-06T05:13:55;14.63;;;14.23;;
1957;SDS011;979;51.076;13.748;2022-08-06T05:16:34;15.20;;;14.70;;
1957;SDS011;979;51.076;13.748;2022-08-06T05:19:23;14.50;;;14.10;;
1957;SDS011;979;51.076;13.748;2022-08-06T05:21:58;15.30;;;14.60;;
1957;SDS011;979;51.076;13.748;2022-08-06T05:24:37;15.33;;;14.83;;
1957;SDS011;979;51.076;13.748;2022-08-06T05:27:30;15.03;;;14.63;;
1957;SDS011;979;51.076;13.748;2022-08-06T05:30:19;14.90;;;14.50;;
1957;SDS011;979;51.076;13.748;2022-08-06T05:32:48;15.20;;;14.70;;
1957;SDS011;979;51.076;13.748;2022-08-06T05:35:22;14.90;;;14.50;;
1957;SDS011;979;51.076;13.748;2022-08-06T05:38:11;14.90;;;14.40;;
1957;SDS011;979;51.076;13.748;2022-08-06T05:40:46;15.30;;;14.70;;
1957;SDS011;979;51.076;13.748;2022-08-06T05:43:27;14.40;;;13.90;;
1957;SDS011;979;51.076;13.748;2022-08-06T05:46:15;15.20;;;14.80;;
1957;SDS011;979;51.076;13.748;2022-08-06T05:48:53;15.10;;;14.60;;
1957;SDS011;979;51.076;13.748;2022-08-06T05:51:28;15.13;;;14.63;;
1957;SDS011;979;51.076;13.748;2022-08-06T05:54:17;15.10;;;14.70;;
1957;SDS011;979;51.076;13.748;2022-08-06T05:56:50;15.53;;;15.03;;
1957;SDS011;979;51.076;13.748;2022-08-06T05:59:24;15.40;;;14.90;;
1957;SDS011;979;51.076;13.748;2022-08-06T06:02:15;15.23;;;14.70;;
1957;SDS011;979;51.076;13.748;2022-08-06T06:04:48;14.73;;;14.33;;
1957;SDS011;979;51.076;13.748;2022-08-06T06:07:36;15.10;;;14.70;;
1957;SDS011;979;51.076;13.748;2022-08-06T06:10:27;15.00;;;14.50;;
1957;SDS011;979;51.076;13.748;2022-08-06T06:12:59;14.97;;;14.57;;
1957;SDS011;979;51.076;13.748;2022-08-06T06:15:31;14.80;;;14.27;;
1957;SDS011;979;51.076;13.748;2022-08-06T06:18:27;15.40;;;14.80;;
1957;SDS011;979;51.076;13.748;2022-08-06T06:21:05;14.53;;;14.13;;
1957;SDS011;979;51.076;13.748;2022-08-06T06:23:48;14.50;;;14.20;;
1957;SDS011;979;51.076;13.748;2022-08-06T06:26:28;15.10;;;14.50;;
1957;SDS011;979;51.076;13.748;2022-08-06T06:29:07;14.67;;;14.27;;
1957;SDS011;979;51.076;13.748;2022-08-06T06:31:44;14.43;;;13.93;;
1957;SDS011;979;51.076;13.748;2022-08-06T06:34:48;13.57;;;13.27;;
1957;SDS011;979;51.076;13.748;2022-08-06T06:37:26;13.60;;;13.20;;
1957;SDS011;979;51.076;13.748;2022-08-06T06:40:09;15.00;;;14.30;;
1957;SDS011;979;51.076;13.748;2022-08-06T06:42:46;14.67;;;14.17;;
1957;SDS011;979;51.076;13.748;2022-08-06T06:45:23;14.70;;;14.30;;
1957;SDS011;979;51.076;13.748;2022-08-06T06:48:21;14.80;;;14.17;;
1957;SDS011;979;51.076;13.748;2022-08-06T06:50:54;14.90;;;14.50;;
1957;SDS011;979;51.076;13.748;2022-08-06T06:53:30;14.60;;;14.20;;
1957;SDS011;979;51.076;13.748;2022-08-06T06:56:24;14.70;;;14.30;;
1957;SDS011;979;51.076;13.748;2022-08-06T06:58:59;14.37;;;13.97;;
1957;SDS011;979;51.076;13.748;2022-08-06T07:01:40;13.70;;;13.40;;
1957;SDS011;979;51.076;13.748;2022-08-06T07:04:22;13.57;;;13.17;;
1957;SDS011;979;51.076;13.748;2022-08-06T07:06:55;13.53;;;13.13;;
1957;SDS011;979;51.076;13.748;2022-08-06T07:09:34;14.97;;;14.30;;
1957;SDS011;979;51.076;13.748;2022-08-06T07:12:11;14.50;;;13.90;;
1957;SDS011;979;51.076;13.748;2022-08-06T07:14:51;14.70;;;14.20;;
1957;SDS011;979;51.076;13.748;2022-08-06T07:17:27;14.00;;;13.60;;
1957;SDS011;979;51.076;13.748;2022-08-06T07:20:18;15.73;;;15.03;;
1957;SDS011;979;51.076;13.748;2022-08-06T07:22:54;15.00;;;14.40;;
1957;SDS011;979;51.076;13.748;2022-08-06T07:25:45;14.30;;;13.90;;
1957;SDS011;979;51.076;13.748;2022-08-06T07:28:21;15.30;;;14.80;;
1957;SDS011;979;51.076;13.748;2022-08-06T07:30:57;14.30;;;13.90;;
1957;SDS011;979;51.076;13.748;2022-08-06T07:33:37;14.67;;;14.27;;
1957;SDS011;979;51.076;13.748;2022-08-06T07:36:30;13.90;;;13.60;;
1957;SDS011;979;51.076;13.748;2022-08-06T07:39:04;14.10;;;13.80;;
1957;SDS011;979;51.076;13.748;2022-08-06T07:41:41;14.60;;;14.03;;
1957;SDS011;979;51.076;13.748;2022-08-06T07:44:34;14.40;;;13.90;;
1957;SDS011;979;51.076;13.748;2022-08-06T07:47:24;14.60;;;13.97;;
1957;SDS011;979;51.076;13.748;2022-08-06T07:50:10;14.37;;;13.87;;
1957;SDS011;979;51.076;13.748;2022-08-06T07:52:41;14.67;;;14.27;;
1957;SDS011;979;51.076;13.748;2022-08-06T07:55:12;13.90;;;13.43;;
1957;SDS011;979;51.076;13.748;2022-08-06T07:57:43;14.63;;;14.20;;
1957;SDS011;979;51.076;13.748;2022-08-06T08:00:21;14.67;;;14.27;;
1957;SDS011;979;51.076;13.748;2022-08-06T08:02:53;14.43;;;14.03;;
1957;SDS011;979;51.076;13.748;2022-08-06T08:06:00;15.00;;;14.40;;
1957;SDS011;979;51.076;13.748;2022-08-06T08:08:52;15.07;;;14.63;;
1957;SDS011;979;51.076;13.748;2022-08-06T08:11:23;14.93;;;14.50;;
1957;SDS011;979;51.076;13.748;2022-08-06T08:14:13;14.80;;;14.40;;
1957;SDS011;979;51.076;13.748;2022-08-06T08:16:46;14.43;;;14.03;;
1957;SDS011;979;51.076;13.748;2022-08-06T08:19:19;15.37;;;14.77;;
1957;SDS011;979;51.076;13.748;2022-08-06T08:22:02;15.50;;;15.00;;
1957;SDS011;979;51.076;13.748;2022-08-06T08:24:37;15.33;;;14.73;;
1957;SDS011;979;51.076;13.748;2022-08-06T08:27:06;14.90;;;14.50;;
1957;SDS011;979;51.076;13.748;2022-08-06T08:29:50;14.27;;;13.77;;
1957;SDS011;979;51.076;13.748;2022-08-06T08:32:25;14.00;;;13.60;;
1957;SDS011;979;51.076;13.748;2022-08-06T08:34:56;15.53;;;14.83;;
1957;SDS011;979;51.076;13.748;2022-08-06T08:37:25;14.00;;;13.50;;
1957;SDS011;979;51.076;13.748;2022-08-06T08:39:59;13.57;;;13.27;;
1957;SDS011;979;51.076;13.748;2022-08-06T08:42:28;13.30;;;12.77;;
1957;SDS011;979;51.076;13.748;2022-08-06T08:45:04;13.83;;;13.50;;
1957;SDS011;979;51.076;13.748;2022-08-06T08:47:42;13.57;;;13.07;;
1957;SDS011;979;51.076;13.748;2022-08-06T08:50:23;13.40;;;13.10;;
1957;SDS011;979;51.076;13.748;2022-08-06T08:52:57;13.40;;;12.80;;
1957;SDS011;979;51.076;13.748;2022-08-06T08:55:32;13.07;;;12.67;;
1957;SDS011;979;51.076;13.748;2022-08-06T08:58:26;13.30;;;12.90;;
1957;SDS011;979;51.076;13.748;2022-08-06T09:01:09;13.77;;;13.43;;
1957;SDS011;979;51.076;13.748;2022-08-06T09:03:58;12.40;;;12.00;;
1957;SDS011;979;51.076;13.748;2022-08-06T09:06:32;12.73;;;12.33;;
1957;SDS011;979;51.076;13.748;2022-08-06T09:09:10;12.30;;;12.00;;
1957;SDS011;979;51.076;13.748;2022-08-06T09:11:43;12.30;;;12.00;;
1957;SDS011;979;51.076;13.748;2022-08-06T09:14:34;12.97;;;12.30;;
1957;SDS011;979;51.076;13.748;2022-08-06T09:17:04;12.90;;;12.30;;
1957;SDS011;979;51.076;13.748;2022-08-06T09:19:38;12.63;;;12.30;;
1957;SDS011;979;51.076;13.748;2022-08-06T09:22:15;12.70;;;12.40;;
1957;SDS011;979;51.076;13.748;2022-08-06T09:24:49;13.70;;;13.30;;
1957;SDS011;979;51.076;13.748;2022-08-06T09:27:34;13.70;;;13.30;;
1957;SDS011;979;51.076;13.748;2022-08-06T09:30:16;13.50;;;13.20;;
1957;SDS011;979;51.076;13.748;2022-08-06T09:32:56;13.17;;;12.70;;
1957;SDS011;979;51.076;13.748;2022-08-06T09:35:45;13.87;;;13.53;;
1957;SDS011;979;51.076;13.748;2022-08-06T09:38:25;13.10;;;12.77;;
1957;SDS011;979;51.076;13.748;2022-08-06T09:41:07;12.70;;;12.30;;
1957;SDS011;979;51.076;13.748;2022-08-06T09:43:51;13.83;;;13.33;;
1957;SDS011;979;51.076;13.748;2022-08-06T09:46:37;13.90;;;13.40;;
1957;SDS011;979;51.076;13.748;2022-08-06T09:49:19;13.20;;;12.90;;
1957;SDS011;979;51.076;13.748;2022-08-06T09:52:11;13.27;;;12.70;;
1957;SDS011;979;51.076;13.748;2022-08-06T09:54:43;12.83;;;12.43;;
1957;SDS011;979;51.076;13.748;2022-08-06T09:57:20;13.20;;;12.90;;
1957;SDS011;979;51.076;13.748;2022-08-06T10:00:23;13.43;;;13.03;;
1957;SDS011;979;51.076;13.748;2022-08-06T10:03:03;13.10;;;12.80;;
1957;SDS011;979;51.076;13.748;2022-08-06T10:06:03;13.10;;;12.80;;
1957;SDS011;979;51.076;13.748;2022-08-06T10:08:41;12.97;;;12.67;;
1957;SDS011;979;51.076;13.748;2022-08-06T10:11:31;13.60;;;13.30;;
1957;SDS011;979;51.076;13.748;2022-08-06T10:14:22;13.20;;;12.90;;
1957;SDS011;979;51.076;13.748;2022-08-06T10:17:07;13.47;;;12.90;;
1957;SDS011;979;51.076;13.748;2022-08-06T10:19:42;12.90;;;12.50;;
1957;SDS011;979;51.076;13.748;2022-08-06T10:22:19;13.23;;;12.93;;
1957;SDS011;979;51.076;13.748;2022-08-06T10:24:54;13.33;;;12.97;;
1957;SDS011;979;51.076;13.748;2022-08-06T10:27:38;12.80;;;12.40;;
1957;SDS011;979;51.076;13.748;2022-08-06T10:30:10;13.17;;;12.67;;
1957;SDS011;979;51.076;13.748;2022-08-06T10:32:43;13.40;;;12.90;;
1957;SDS011;979;51.076;13.748;2022-08-06T10:35:15;12.80;;;12.50;;
1957;SDS011;979;51.076;13.748;2022-08-06T10:37:51;12.67;;;12.27;;
1957;SDS011;979;51.076;13.748;2022-08-06T10:40:28;13.00;;;12.60;;
1957;SDS011;979;51.076;13.748;2022-08-06T10:43:03;12.77;;;12.47;;
1957;SDS011;979;51.076;13.748;2022-08-06T10:45:33;12.43;;;12.13;;
1957;SDS011;979;51.076;13.748;2022-08-06T10:48:16;13.27;;;12.70;;
1957;SDS011;979;51.076;13.748;2022-08-06T10:51:05;13.00;;;12.70;;
1957;SDS011;979;51.076;13.748;2022-08-06T10:53:35;13.47;;;13.07;;
1957;SDS011;979;51.076;13.748;2022-08-06T10:56:25;13.73;;;13.33;;
1957;SDS011;979;51.076;13.748;2022-08-06T10:59:06;13.10;;;12.70;;
1957;SDS011;979;51.076;13.748;2022-08-06T11:01:43;13.53;;;13.13;;
1957;SDS011;979;51.076;13.748;2022-08-06T11:04:34;13.60;;;13.17;;
1957;SDS011;979;51.076;13.748;2022-08-06T11:07:18;12.80;;;12.40;;
1957;SDS011;979;51.076;13.748;2022-08-06T11:10:29;13.10;;;12.70;;
1957;SDS011;979;51.076;13.748;2022-08-06T11:13:11;12.40;;;12.00;;
1957;SDS011;979;51.076;13.748;2022-08-06T11:16:16;12.00;;;11.70;;
1957;SDS011;979;51.076;13.748;2022-08-06T11:19:00;13.77;;;13.40;;
1957;SDS011;979;51.076;13.748;2022-08-06T11:21:41;11.40;;;11.10;;
1957;SDS011;979;51.076;13.748;2022-08-06T11:24:29;12.40;;;12.10;;
1957;SDS011;979;51.076;13.748;2022-08-06T11:27:11;12.60;;;12.30;;
1957;SDS011;979;51.076;13.748;2022-08-06T11:30:40;12.23;;;11.93;;
1957;SDS011;979;51.076;13.748;2022-08-06T11:33:20;12.57;;;12.27;;
1957;SDS011;979;51.076;13.748;2022-08-06T11:36:23;13.30;;;12.90;;
1957;SDS011;979;51.076;13.748;2022-08-06T11:38:59;13.70;;;13.40;;
1957;SDS011;979;51.076;13.748;2022-08-06T11:41:44;13.10;;;12.80;;
1957;SDS011;979;51.076;13.748;2022-08-06T11:44:27;12.83;;;12.53;;
1957;SDS011;979;51.076;13.748;2022-08-06T11:47:10;13.83;;;13.40;;
1957;SDS011;979;51.076;13.748;2022-08-06T11:50:03;12.90;;;12.60;;
1957;SDS011;979;51.076;13.748;2022-08-06T11:52:53;13.40;;;13.00;;
1957;SDS011;979;51.076;13.748;2022-08-06T11:55:23;14.20;;;13.67;;
1957;SDS011;979;51.076;13.748;2022-08-06T12:00:58;13.43;;;13.13;;
1957;SDS011;979;51.076;13.748;2022-08-06T12:03:49;13.10;;;12.60;;
1957;SDS011;979;51.076;13.748;2022-08-06T12:06:22;13.93;;;13.33;;
1957;SDS011;979;51.076;13.748;2022-08-06T12:09:10;14.53;;;14.03;;
1957;SDS011;979;51.076;13.748;2022-08-06T12:11:50;14.03;;;13.53;;
1957;SDS011;979;51.076;13.748;2022-08-06T12:14:37;14.60;;;14.20;;
1957;SDS011;979;51.076;13.748;2022-08-06T12:17:16;14.10;;;13.60;;
1957;SDS011;979;51.076;13.748;2022-08-06T12:19:52;14.37;;;13.97;;
1957;SDS011;979;51.076;13.748;2022-08-06T12:22:29;13.67;;;13.27;;
1957;SDS011;979;51.076;13.748;2022-08-06T12:25:12;14.20;;;13.80;;
1957;SDS011;979;51.076;13.748;2022-08-06T12:27:54;12.85;;;12.45;;
1957;SDS011;979;51.076;13.748;2022-08-06T12:30:23;14.23;;;13.93;;
1957;SDS011;979;51.076;13.748;2022-08-06T12:33:04;14.20;;;13.90;;
1957;SDS011;979;51.076;13.748;2022-08-06T12:35:52;14.70;;;14.40;;
1957;SDS011;979;51.076;13.748;2022-08-06T12:38:27;13.93;;;13.50;;
1957;SDS011;979;51.076;13.748;2022-08-06T12:41:01;13.07;;;12.73;;
1957;SDS011;979;51.076;13.748;2022-08-06T12:43:41;13.40;;;13.10;;
1957;SDS011;979;51.076;13.748;2022-08-06T12:46:26;13.67;;;13.33;;
1957;SDS011;979;51.076;13.748;2022-08-06T12:49:11;13.50;;;13.10;;
1957;SDS011;979;51.076;13.748;2022-08-06T12:52:11;13.70;;;13.03;;
1957;SDS011;979;51.076;13.748;2022-08-06T12:54:42;13.53;;;13.10;;
1957;SDS011;979;51.076;13.748;2022-08-06T12:57:23;13.80;;;13.40;;
1957;SDS011;979;51.076;13.748;2022-08-06T13:00:18;12.83;;;12.53;;
1957;SDS011;979;51.076;13.748;2022-08-06T13:02:58;12.70;;;12.40;;
1957;SDS011;979;51.076;13.748;2022-08-06T13:05:33;12.90;;;12.60;;
1957;SDS011;979;51.076;13.748;2022-08-06T13:08:07;12.93;;;12.53;;
1957;SDS011;979;51.076;13.748;2022-08-06T13:10:37;13.20;;;12.80;;
1957;SDS011;979;51.076;13.748;2022-08-06T13:13:06;13.83;;;13.17;;
1957;SDS011;979;51.076;13.748;2022-08-06T13:16:05;12.73;;;12.43;;
1957;SDS011;979;51.076;13.748;2022-08-06T13:18:35;13.00;;;12.70;;
1957;SDS011;979;51.076;13.748;2022-08-06T13:21:15;13.00;;;12.70;;
1957;SDS011;979;51.076;13.748;2022-08-06T13:23:47;12.80;;;12.40;;
1957;SDS011;979;51.076;13.748;2022-08-06T13:26:23;12.17;;;11.87;;
1957;SDS011;979;51.076;13.748;2022-08-06T13:29:07;12.43;;;12.13;;
1957;SDS011;979;51.076;13.748;2022-08-06T13:32:06;12.80;;;12.50;;
1957;SDS011;979;51.076;13.748;2022-08-06T13:34:56;12.23;;;11.97;;
1957;SDS011;979;51.076;13.748;2022-08-06T13:37:45;11.90;;;11.70;;
1957;SDS011;979;51.076;13.748;2022-08-06T13:40:37;11.80;;;11.40;;
1957;SDS011;979;51.076;13.748;2022-08-06T13:43:16;12.23;;;11.87;;
1957;SDS011;979;51.076;13.748;2022-08-06T13:46:05;11.40;;;11.10;;
1957;SDS011;979;51.076;13.748;2022-08-06T13:48:56;11.83;;;11.53;;
1957;SDS011;979;51.076;13.748;2022-08-06T13:51:27;12.53;;;12.23;;
1957;SDS011;979;51.076;13.748;2022-08-06T13:54:01;11.60;;;11.40;;
1957;SDS011;979;51.076;13.748;2022-08-06T13:56:42;13.20;;;12.80;;
1957;SDS011;979;51.076;13.748;2022-08-06T13:59:18;12.90;;;12.60;;
1957;SDS011;979;51.076;13.748;2022-08-06T14:02:08;12.37;;;12.17;;
1957;SDS011;979;51.076;13.748;2022-08-06T14:04:39;11.77;;;11.47;;
1957;SDS011;979;51.076;13.748;2022-08-06T14:07:16;14.13;;;13.80;;
1957;SDS011;979;51.076;13.748;2022-08-06T14:09:46;12.50;;;12.20;;
1957;SDS011;979;51.076;13.748;2022-08-06T14:12:34;12.20;;;11.80;;
1957;SDS011;979;51.076;13.748;2022-08-06T14:15:06;12.30;;;12.00;;
1957;SDS011;979;51.076;13.748;2022-08-06T14:17:40;13.03;;;12.73;;
1957;SDS011;979;51.076;13.748;2022-08-06T14:20:12;14.37;;;13.87;;
1957;SDS011;979;51.076;13.748;2022-08-06T14:22:51;12.63;;;12.23;;
1957;SDS011;979;51.076;13.748;2022-08-06T14:25:21;12.40;;;12.10;;
1957;SDS011;979;51.076;13.748;2022-08-06T14:27:54;12.37;;;12.07;;
1957;SDS011;979;51.076;13.748;2022-08-06T14:30:23;12.83;;;12.53;;
1957;SDS011;979;51.076;13.748;2022-08-06T14:32:58;12.37;;;12.07;;
1957;SDS011;979;51.076;13.748;2022-08-06T14:35:46;12.80;;;12.50;;
1957;SDS011;979;51.076;13.748;2022-08-06T14:38:18;13.40;;;13.10;;
1957;SDS011;979;51.076;13.748;2022-08-06T14:40:59;12.83;;;12.53;;
1957;SDS011;979;51.076;13.748;2022-08-06T14:44:06;12.63;;;12.33;;
1957;SDS011;979;51.076;13.748;2022-08-06T14:46:54;12.60;;;12.30;;
1957;SDS011;979;51.076;13.748;2022-08-06T14:49:25;12.07;;;11.77;;
1957;SDS011;979;51.076;13.748;2022-08-06T14:52:15;12.00;;;11.70;;
1957;SDS011;979;51.076;13.748;2022-08-06T14:54:50;11.80;;;11.40;;
1957;SDS011;979;51.076;13.748;2022-08-06T14:57:35;12.10;;;11.80;;
1957;SDS011;979;51.076;13.748;2022-08-06T15:00:26;12.60;;;12.30;;
1957;SDS011;979;51.076;13.748;2022-08-06T15:03:05;12.97;;;12.57;;
1957;SDS011;979;51.076;13.748;2022-08-06T15:05:39;12.00;;;11.80;;
1957;SDS011;979;51.076;13.748;2022-08-06T15:08:29;12.17;;;11.87;;
1957;SDS011;979;51.076;13.748;2022-08-06T15:10:59;11.90;;;11.60;;
1957;SDS011;979;51.076;13.748;2022-08-06T15:13:41;12.00;;;11.70;;
1957;SDS011;979;51.076;13.748;2022-08-06T15:16:17;12.90;;;12.60;;
1957;SDS011;979;51.076;13.748;2022-08-06T15:19:05;12.23;;;11.87;;
1957;SDS011;979;51.076;13.748;2022-08-06T15:21:54;13.27;;;12.77;;
1957;SDS011;979;51.076;13.748;2022-08-06T15:24:26;11.60;;;11.40;;
1957;SDS011;979;51.076;13.748;2022-08-06T15:26:56;12.00;;;11.80;;
1957;SDS011;979;51.076;13.748;2022-08-06T15:29:24;11.80;;;11.40;;
1957;SDS011;979;51.076;13.748;2022-08-06T15:32:00;12.40;;;12.10;;
1957;SDS011;979;51.076;13.748;2022-08-06T15:34:43;13.30;;;13.00;;
1957;SDS011;979;51.076;13.748;2022-08-06T15:37:15;12.57;;;12.27;;
1957;SDS011;979;51.076;13.748;2022-08-06T15:40:07;12.93;;;12.63;;
1957;SDS011;979;51.076;13.748;2022-08-06T15:42:38;12.47;;;12.17;;
1957;SDS011;979;51.076;13.748;2022-08-06T15:45:08;12.33;;;12.03;;
1957;SDS011;979;51.076;13.748;2022-08-06T15:47:57;12.00;;;11.80;;
1957;SDS011;979;51.076;13.748;2022-08-06T15:50:31;12.20;;;12.00;;
1957;SDS011;979;51.076;13.748;2022-08-06T15:53:20;12.30;;;12.10;;
1957;SDS011;979;51.076;13.748;2022-08-06T15:55:51;12.70;;;12.40;;
1957;SDS011;979;51.076;13.748;2022-08-06T15:58:19;12.40;;;12.10;;
1957;SDS011;979;51.076;13.748;2022-08-06T16:00:55;12.70;;;12.30;;
1957;SDS011;979;51.076;13.748;2022-08-06T16:03:30;12.30;;;12.00;;
1957;SDS011;979;51.076;13.748;2022-08-06T16:06:19;12.93;;;12.63;;